sensor_id;sensor_type;location;lat;lon;timestamp;temperature;humidity
14415;DHT22;7307;50.852;4.314;2022-10-23T00:02:24;20.90;69.60
14415;DHT22;7307;50.852;4.314;2022-10-23T00:04:50;20.90;69.60
14415;DHT22;7307;50.852;4.314;2022-10-23T00:07:17;20.90;69.60
14415;DHT22;7307;50.852;4.314;2022-10-23T00:09:43;20.90;69.60
14415;DHT22;7307;50.852;4.314;2022-10-23T00:12:08;20.90;69.80
14415;DHT22;7307;50.852;4.314;2022-10-23T00:14:34;20.90;69.80
14415;DHT22;7307;50.852;4.314;2022-10-23T00:17:00;20.90;69.80
14415;DHT22;7307;50.852;4.314;2022-10-23T00:19:26;20.90;69.80
14415;DHT22;7307;50.852;4.314;2022-10-23T00:21:51;20.90;69.90
14415;DHT22;7307;50.852;4.314;2022-10-23T00:24:17;20.90;69.90
14415;DHT22;7307;50.852;4.314;2022-10-23T00:26:42;20.90;69.90
14415;DHT22;7307;50.852;4.314;2022-10-23T00:29:09;20.90;69.90
14415;DHT22;7307;50.852;4.314;2022-10-23T00:31:35;20.90;69.90
14415;DHT22;7307;50.852;4.314;2022-10-23T00:34:01;20.90;70.00
14415;DHT22;7307;50.852;4.314;2022-10-23T00:36:26;20.90;70.00
14415;DHT22;7307;50.852;4.314;2022-10-23T00:38:52;20.90;70.10
14415;DHT22;7307;50.852;4.314;2022-10-23T00:41:24;20.90;70.10
14415;DHT22;7307;50.852;4.314;2022-10-23T00:44:09;20.90;70.20
14415;DHT22;7307;50.852;4.314;2022-10-23T00:46:37;20.90;70.20
14415;DHT22;7307;50.852;4.314;2022-10-23T00:49:04;20.90;70.20
14415;DHT22;7307;50.852;4.314;2022-10-23T00:51:35;20.90;70.20
14415;DHT22;7307;50.852;4.314;2022-10-23T00:54:03;20.90;70.30
14415;DHT22;7307;50.852;4.314;2022-10-23T00:56:30;20.90;70.30
14415;DHT22;7307;50.852;4.314;2022-10-23T00:58:57;20.90;70.30
14415;DHT22;7307;50.852;4.314;2022-10-23T01:01:23;20.90;70.60
14415;DHT22;7307;50.852;4.314;2022-10-23T01:03:49;20.90;70.50
14415;DHT22;7307;50.852;4.314;2022-10-23T01:06:33;20.90;70.50
14415;DHT22;7307;50.852;4.314;2022-10-23T01:20:23;20.80;70.60
14415;DHT22;7307;50.852;4.314;2022-10-23T01:23:16;20.90;70.60
14415;DHT22;7307;50.852;4.314;2022-10-23T01:28:28;20.80;70.70
14415;DHT22;7307;50.852;4.314;2022-10-23T01:30:57;20.80;70.70
14415;DHT22;7307;50.852;4.314;2022-10-23T01:33:30;20.80;70.70
14415;DHT22;7307;50.852;4.314;2022-10-23T01:36:04;20.80;70.80
14415;DHT22;7307;50.852;4.314;2022-10-23T01:38:39;20.80;70.70
14415;DHT22;7307;50.852;4.314;2022-10-23T01:44:10;20.80;70.90
14415;DHT22;7307;50.852;4.314;2022-10-23T01:46:38;20.90;71.00
14415;DHT22;7307;50.852;4.314;2022-10-23T01:49:07;20.80;70.80
14415;DHT22;7307;50.852;4.314;2022-10-23T01:51:35;20.80;70.80
14415;DHT22;7307;50.852;4.314;2022-10-23T01:54:05;20.90;71.00
14415;DHT22;7307;50.852;4.314;2022-10-23T01:56:32;20.80;71.00
14415;DHT22;7307;50.852;4.314;2022-10-23T01:59:03;20.80;71.00
14415;DHT22;7307;50.852;4.314;2022-10-23T02:01:30;20.80;71.10
14415;DHT22;7307;50.852;4.314;2022-10-23T02:03:58;20.80;71.80
14415;DHT22;7307;50.852;4.314;2022-10-23T02:06:25;20.80;71.00
14415;DHT22;7307;50.852;4.314;2022-10-23T02:08:51;20.90;71.10
14415;DHT22;7307;50.852;4.314;2022-10-23T02:11:18;20.80;71.00
14415;DHT22;7307;50.852;4.314;2022-10-23T02:13:55;20.90;71.10
14415;DHT22;7307;50.852;4.314;2022-10-23T02:16:52;20.80;71.10
14415;DHT22;7307;50.852;4.314;2022-10-23T02:22:20;20.80;71.10
14415;DHT22;7307;50.852;4.314;2022-10-23T02:24:57;20.80;71.20
14415;DHT22;7307;50.852;4.314;2022-10-23T02:27:33;20.80;71.20
14415;DHT22;7307;50.852;4.314;2022-10-23T02:30:04;20.80;71.20
14415;DHT22;7307;50.852;4.314;2022-10-23T02:32:31;20.80;71.20
14415;DHT22;7307;50.852;4.314;2022-10-23T02:34:58;20.80;71.20
14415;DHT22;7307;50.852;4.314;2022-10-23T02:37:23;20.80;71.20
14415;DHT22;7307;50.852;4.314;2022-10-23T02:39:50;20.80;71.20
14415;DHT22;7307;50.852;4.314;2022-10-23T02:42:24;20.80;71.20
14415;DHT22;7307;50.852;4.314;2022-10-23T02:53:19;20.80;71.40
14415;DHT22;7307;50.852;4.314;2022-10-23T02:59:01;20.80;71.40
14415;DHT22;7307;50.852;4.314;2022-10-23T03:01:50;20.80;71.40
14415;DHT22;7307;50.852;4.314;2022-10-23T03:04:18;20.80;71.40
14415;DHT22;7307;50.852;4.314;2022-10-23T03:06:46;20.80;71.40
14415;DHT22;7307;50.852;4.314;2022-10-23T03:09:12;20.80;71.40
14415;DHT22;7307;50.852;4.314;2022-10-23T03:11:37;20.80;71.40
14415;DHT22;7307;50.852;4.314;2022-10-23T03:14:03;20.80;71.50
14415;DHT22;7307;50.852;4.314;2022-10-23T03:16:28;20.80;71.50
14415;DHT22;7307;50.852;4.314;2022-10-23T03:18:54;20.80;71.50
14415;DHT22;7307;50.852;4.314;2022-10-23T03:21:20;20.80;71.60
14415;DHT22;7307;50.852;4.314;2022-10-23T03:23:45;20.80;71.50
14415;DHT22;7307;50.852;4.314;2022-10-23T03:26:11;20.80;71.50
14415;DHT22;7307;50.852;4.314;2022-10-23T03:28:37;20.80;71.50
14415;DHT22;7307;50.852;4.314;2022-10-23T03:31:03;20.80;71.60
14415;DHT22;7307;50.852;4.314;2022-10-23T03:33:29;20.80;71.50
14415;DHT22;7307;50.852;4.314;2022-10-23T03:35:55;20.80;71.60
14415;DHT22;7307;50.852;4.314;2022-10-23T03:38:21;20.80;71.60
14415;DHT22;7307;50.852;4.314;2022-10-23T03:40:46;20.80;71.60
14415;DHT22;7307;50.852;4.314;2022-10-23T03:43:12;20.80;71.60
14415;DHT22;7307;50.852;4.314;2022-10-23T03:45:38;20.80;71.60
14415;DHT22;7307;50.852;4.314;2022-10-23T03:48:07;20.80;71.60
14415;DHT22;7307;50.852;4.314;2022-10-23T03:50:33;20.80;71.60
14415;DHT22;7307;50.852;4.314;2022-10-23T03:52:58;20.80;71.60
14415;DHT22;7307;50.852;4.314;2022-10-23T03:55:24;20.80;71.60
14415;DHT22;7307;50.852;4.314;2022-10-23T03:57:52;20.80;71.60
14415;DHT22;7307;50.852;4.314;2022-10-23T04:00:17;20.80;71.60
14415;DHT22;7307;50.852;4.314;2022-10-23T04:02:43;20.80;71.60
14415;DHT22;7307;50.852;4.314;2022-10-23T04:05:09;20.70;71.50
14415;DHT22;7307;50.852;4.314;2022-10-23T04:07:35;20.80;71.60
14415;DHT22;7307;50.852;4.314;2022-10-23T04:10:01;20.80;71.60
14415;DHT22;7307;50.852;4.314;2022-10-23T04:12:26;20.80;71.60
14415;DHT22;7307;50.852;4.314;2022-10-23T04:14:52;20.70;71.60
14415;DHT22;7307;50.852;4.314;2022-10-23T04:17:18;20.80;71.70
14415;DHT22;7307;50.852;4.314;2022-10-23T04:19:43;20.70;71.60
14415;DHT22;7307;50.852;4.314;2022-10-23T04:22:09;20.80;71.70
14415;DHT22;7307;50.852;4.314;2022-10-23T04:24:34;20.80;71.60
14415;DHT22;7307;50.852;4.314;2022-10-23T04:27:00;20.80;71.70
14415;DHT22;7307;50.852;4.314;2022-10-23T04:29:26;20.70;71.60
14415;DHT22;7307;50.852;4.314;2022-10-23T04:31:53;20.80;71.70
14415;DHT22;7307;50.852;4.314;2022-10-23T04:34:19;20.70;71.60
14415;DHT22;7307;50.852;4.314;2022-10-23T04:36:44;20.70;71.60
14415;DHT22;7307;50.852;4.314;2022-10-23T04:39:10;20.70;71.60
14415;DHT22;7307;50.852;4.314;2022-10-23T04:41:36;20.70;71.60
14415;DHT22;7307;50.852;4.314;2022-10-23T04:44:03;20.70;71.60
14415;DHT22;7307;50.852;4.314;2022-10-23T04:46:28;20.80;71.60
14415;DHT22;7307;50.852;4.314;2022-10-23T04:48:54;20.70;71.60
14415;DHT22;7307;50.852;4.314;2022-10-23T04:51:20;20.80;71.60
14415;DHT22;7307;50.852;4.314;2022-10-23T04:53:45;20.70;71.50
14415;DHT22;7307;50.852;4.314;2022-10-23T04:56:13;20.70;71.50
14415;DHT22;7307;50.852;4.314;2022-10-23T04:58:40;20.70;71.50
14415;DHT22;7307;50.852;4.314;2022-10-23T05:01:05;20.70;71.50
14415;DHT22;7307;50.852;4.314;2022-10-23T05:03:32;20.70;71.50
14415;DHT22;7307;50.852;4.314;2022-10-23T05:05:57;20.80;71.60
14415;DHT22;7307;50.852;4.314;2022-10-23T05:08:23;20.70;71.40
14415;DHT22;7307;50.852;4.314;2022-10-23T05:10:49;20.70;71.40
14415;DHT22;7307;50.852;4.314;2022-10-23T05:13:16;20.70;71.40
14415;DHT22;7307;50.852;4.314;2022-10-23T05:15:45;20.70;71.40
14415;DHT22;7307;50.852;4.314;2022-10-23T05:21:00;20.70;71.40
14415;DHT22;7307;50.852;4.314;2022-10-23T05:23:27;20.70;71.40
14415;DHT22;7307;50.852;4.314;2022-10-23T05:25:54;20.70;71.40
14415;DHT22;7307;50.852;4.314;2022-10-23T05:28:20;20.70;71.40
14415;DHT22;7307;50.852;4.314;2022-10-23T05:30:46;20.70;71.40
14415;DHT22;7307;50.852;4.314;2022-10-23T05:33:12;20.70;71.40
14415;DHT22;7307;50.852;4.314;2022-10-23T05:35:39;20.70;71.40
14415;DHT22;7307;50.852;4.314;2022-10-23T05:38:06;20.70;71.40
14415;DHT22;7307;50.852;4.314;2022-10-23T05:40:32;20.70;71.40
14415;DHT22;7307;50.852;4.314;2022-10-23T05:42:57;20.70;71.40
14415;DHT22;7307;50.852;4.314;2022-10-23T05:45:23;20.70;71.40
14415;DHT22;7307;50.852;4.314;2022-10-23T05:47:48;20.70;71.30
14415;DHT22;7307;50.852;4.314;2022-10-23T05:50:14;20.70;71.40
14415;DHT22;7307;50.852;4.314;2022-10-23T05:52:40;20.70;71.40
14415;DHT22;7307;50.852;4.314;2022-10-23T05:55:06;20.70;71.30
14415;DHT22;7307;50.852;4.314;2022-10-23T05:57:32;20.70;71.30
14415;DHT22;7307;50.852;4.314;2022-10-23T05:59:58;20.70;71.30
14415;DHT22;7307;50.852;4.314;2022-10-23T06:02:23;20.70;71.30
14415;DHT22;7307;50.852;4.314;2022-10-23T06:04:49;20.70;71.30
14415;DHT22;7307;50.852;4.314;2022-10-23T06:07:14;20.70;71.30
14415;DHT22;7307;50.852;4.314;2022-10-23T06:09:40;20.70;71.30
14415;DHT22;7307;50.852;4.314;2022-10-23T06:12:06;20.70;71.30
14415;DHT22;7307;50.852;4.314;2022-10-23T06:14:31;20.70;71.30
14415;DHT22;7307;50.852;4.314;2022-10-23T06:16:57;20.70;71.20
14415;DHT22;7307;50.852;4.314;2022-10-23T06:19:22;20.70;71.20
14415;DHT22;7307;50.852;4.314;2022-10-23T06:21:48;20.70;71.20
14415;DHT22;7307;50.852;4.314;2022-10-23T06:24:14;20.70;71.20
14415;DHT22;7307;50.852;4.314;2022-10-23T06:26:39;20.70;71.20
14415;DHT22;7307;50.852;4.314;2022-10-23T06:29:05;20.70;71.20
14415;DHT22;7307;50.852;4.314;2022-10-23T06:31:31;20.70;71.20
14415;DHT22;7307;50.852;4.314;2022-10-23T06:33:57;20.70;71.20
14415;DHT22;7307;50.852;4.314;2022-10-23T06:36:23;20.70;71.20
14415;DHT22;7307;50.852;4.314;2022-10-23T06:38:49;20.70;71.20
14415;DHT22;7307;50.852;4.314;2022-10-23T06:41:19;20.70;71.20
14415;DHT22;7307;50.852;4.314;2022-10-23T06:43:47;20.70;71.20
14415;DHT22;7307;50.852;4.314;2022-10-23T06:46:14;20.70;71.20
14415;DHT22;7307;50.852;4.314;2022-10-23T06:48:41;20.70;71.20
14415;DHT22;7307;50.852;4.314;2022-10-23T06:51:08;20.70;71.20
14415;DHT22;7307;50.852;4.314;2022-10-23T06:53:34;20.70;71.10
14415;DHT22;7307;50.852;4.314;2022-10-23T06:56:01;20.70;71.10
14415;DHT22;7307;50.852;4.314;2022-10-23T06:58:28;20.70;71.10
14415;DHT22;7307;50.852;4.314;2022-10-23T07:00:53;20.70;71.10
14415;DHT22;7307;50.852;4.314;2022-10-23T07:03:19;20.70;71.10
14415;DHT22;7307;50.852;4.314;2022-10-23T07:05:45;20.70;71.10
14415;DHT22;7307;50.852;4.314;2022-10-23T07:08:12;20.70;71.00
14415;DHT22;7307;50.852;4.314;2022-10-23T07:10:38;20.70;71.00
14415;DHT22;7307;50.852;4.314;2022-10-23T07:13:07;20.70;71.00
14415;DHT22;7307;50.852;4.314;2022-10-23T07:15:33;20.70;71.00
14415;DHT22;7307;50.852;4.314;2022-10-23T07:17:59;20.70;71.00
14415;DHT22;7307;50.852;4.314;2022-10-23T07:20:25;20.70;71.00
14415;DHT22;7307;50.852;4.314;2022-10-23T07:22:52;20.70;71.00
14415;DHT22;7307;50.852;4.314;2022-10-23T07:25:19;20.70;70.90
14415;DHT22;7307;50.852;4.314;2022-10-23T07:27:45;20.70;70.90
14415;DHT22;7307;50.852;4.314;2022-10-23T07:30:11;20.70;71.00
14415;DHT22;7307;50.852;4.314;2022-10-23T07:32:37;20.70;70.90
14415;DHT22;7307;50.852;4.314;2022-10-23T07:35:03;20.70;71.00
14415;DHT22;7307;50.852;4.314;2022-10-23T07:37:29;20.70;71.10
14415;DHT22;7307;50.852;4.314;2022-10-23T07:39:55;20.70;71.10
14415;DHT22;7307;50.852;4.314;2022-10-23T07:42:20;20.70;71.00
14415;DHT22;7307;50.852;4.314;2022-10-23T07:44:46;20.70;71.40
14415;DHT22;7307;50.852;4.314;2022-10-23T07:47:11;20.70;71.40
14415;DHT22;7307;50.852;4.314;2022-10-23T07:49:37;20.70;71.40
14415;DHT22;7307;50.852;4.314;2022-10-23T07:52:04;20.70;71.40
14415;DHT22;7307;50.852;4.314;2022-10-23T07:54:29;20.70;71.40
14415;DHT22;7307;50.852;4.314;2022-10-23T07:56:55;20.70;71.50
14415;DHT22;7307;50.852;4.314;2022-10-23T07:59:21;20.70;71.50
14415;DHT22;7307;50.852;4.314;2022-10-23T08:01:46;20.70;71.40
14415;DHT22;7307;50.852;4.314;2022-10-23T08:04:12;20.70;71.50
14415;DHT22;7307;50.852;4.314;2022-10-23T08:06:38;20.70;71.40
14415;DHT22;7307;50.852;4.314;2022-10-23T08:09:04;20.70;71.50
14415;DHT22;7307;50.852;4.314;2022-10-23T08:11:30;20.70;71.40
14415;DHT22;7307;50.852;4.314;2022-10-23T08:14:00;20.70;71.40
14415;DHT22;7307;50.852;4.314;2022-10-23T08:16:30;20.70;71.50
14415;DHT22;7307;50.852;4.314;2022-10-23T08:18:56;20.70;71.60
14415;DHT22;7307;50.852;4.314;2022-10-23T08:21:21;20.70;71.40
14415;DHT22;7307;50.852;4.314;2022-10-23T08:23:47;20.70;71.40
14415;DHT22;7307;50.852;4.314;2022-10-23T08:26:13;20.70;71.40
14415;DHT22;7307;50.852;4.314;2022-10-23T08:28:39;20.70;71.40
14415;DHT22;7307;50.852;4.314;2022-10-23T08:31:10;20.70;71.40
14415;DHT22;7307;50.852;4.314;2022-10-23T08:33:36;20.70;71.40
14415;DHT22;7307;50.852;4.314;2022-10-23T08:36:02;20.70;71.40
14415;DHT22;7307;50.852;4.314;2022-10-23T08:38:28;20.70;71.30
14415;DHT22;7307;50.852;4.314;2022-10-23T08:40:56;20.70;71.40
14415;DHT22;7307;50.852;4.314;2022-10-23T08:43:37;20.70;71.30
14415;DHT22;7307;50.852;4.314;2022-10-23T08:46:08;20.70;71.40
14415;DHT22;7307;50.852;4.314;2022-10-23T08:48:43;20.70;71.40
14415;DHT22;7307;50.852;4.314;2022-10-23T08:51:21;20.70;71.40
14415;DHT22;7307;50.852;4.314;2022-10-23T08:53:56;20.70;71.40
14415;DHT22;7307;50.852;4.314;2022-10-23T08:57:08;20.70;71.30
14415;DHT22;7307;50.852;4.314;2022-10-23T08:59:41;20.70;71.30
14415;DHT22;7307;50.852;4.314;2022-10-23T09:02:24;20.70;71.30
14415;DHT22;7307;50.852;4.314;2022-10-23T09:04:52;20.70;71.40
14415;DHT22;7307;50.852;4.314;2022-10-23T09:12:31;20.70;71.20
14415;DHT22;7307;50.852;4.314;2022-10-23T09:18:00;20.70;71.20
14415;DHT22;7307;50.852;4.314;2022-10-23T09:20:33;20.70;71.20
14415;DHT22;7307;50.852;4.314;2022-10-23T09:23:20;20.70;71.20
14415;DHT22;7307;50.852;4.314;2022-10-23T09:25:47;20.70;71.20
14415;DHT22;7307;50.852;4.314;2022-10-23T09:28:36;20.70;71.20
14415;DHT22;7307;50.852;4.314;2022-10-23T09:31:10;20.70;71.20
14415;DHT22;7307;50.852;4.314;2022-10-23T09:33:37;20.70;71.10
14415;DHT22;7307;50.852;4.314;2022-10-23T09:46:40;20.70;71.00
14415;DHT22;7307;50.852;4.314;2022-10-23T09:49:13;20.70;71.70
14415;DHT22;7307;50.852;4.314;2022-10-23T09:51:39;20.70;71.30
14415;DHT22;7307;50.852;4.314;2022-10-23T09:54:14;20.70;71.20
14415;DHT22;7307;50.852;4.314;2022-10-23T09:56:46;20.70;70.70
14415;DHT22;7307;50.852;4.314;2022-10-23T10:01:46;20.80;70.10
14415;DHT22;7307;50.852;4.314;2022-10-23T10:04:13;20.80;71.10
14415;DHT22;7307;50.852;4.314;2022-10-23T10:06:38;20.80;70.00
14415;DHT22;7307;50.852;4.314;2022-10-23T10:09:15;20.80;70.00
14415;DHT22;7307;50.852;4.314;2022-10-23T10:20:10;20.80;70.60
14415;DHT22;7307;50.852;4.314;2022-10-23T10:22:52;20.80;70.20
14415;DHT22;7307;50.852;4.314;2022-10-23T10:34:24;20.80;70.20
14415;DHT22;7307;50.852;4.314;2022-10-23T10:36:50;20.90;70.30
14415;DHT22;7307;50.852;4.314;2022-10-23T10:44:49;20.90;70.30
14415;DHT22;7307;50.852;4.314;2022-10-23T10:47:24;20.90;71.10
14415;DHT22;7307;50.852;4.314;2022-10-23T10:52:32;20.90;70.20
14415;DHT22;7307;50.852;4.314;2022-10-23T10:57:44;20.90;70.00
14415;DHT22;7307;50.852;4.314;2022-10-23T11:00:21;20.90;70.00
14415;DHT22;7307;50.852;4.314;2022-10-23T11:05:59;20.90;69.80
14415;DHT22;7307;50.852;4.314;2022-10-23T11:08:38;20.90;70.20
14415;DHT22;7307;50.852;4.314;2022-10-23T11:11:32;20.90;70.40
14415;DHT22;7307;50.852;4.314;2022-10-23T11:13:56;20.90;70.40
14415;DHT22;7307;50.852;4.314;2022-10-23T11:19:03;20.90;69.70
14415;DHT22;7307;50.852;4.314;2022-10-23T11:24:19;20.90;69.60
14415;DHT22;7307;50.852;4.314;2022-10-23T11:32:47;21.00;69.60
14415;DHT22;7307;50.852;4.314;2022-10-23T11:38:23;20.90;69.60
14415;DHT22;7307;50.852;4.314;2022-10-23T11:40:58;21.00;69.80
14415;DHT22;7307;50.852;4.314;2022-10-23T11:43:51;20.90;69.60
14415;DHT22;7307;50.852;4.314;2022-10-23T11:48:46;21.00;69.80
14415;DHT22;7307;50.852;4.314;2022-10-23T11:51:31;20.90;69.70
14415;DHT22;7307;50.852;4.314;2022-10-23T11:54:19;21.00;69.90
14415;DHT22;7307;50.852;4.314;2022-10-23T11:57:13;21.00;69.80
14415;DHT22;7307;50.852;4.314;2022-10-23T11:59:53;21.00;69.80
14415;DHT22;7307;50.852;4.314;2022-10-23T12:04:50;21.00;70.00
14415;DHT22;7307;50.852;4.314;2022-10-23T12:09:58;21.00;69.80
14415;DHT22;7307;50.852;4.314;2022-10-23T12:12:32;21.00;69.80
14415;DHT22;7307;50.852;4.314;2022-10-23T12:17:41;21.00;69.80
14415;DHT22;7307;50.852;4.314;2022-10-23T12:23:02;21.00;69.70
14415;DHT22;7307;50.852;4.314;2022-10-23T12:25:39;21.00;69.80
14415;DHT22;7307;50.852;4.314;2022-10-23T12:38:48;21.00;69.50
14415;DHT22;7307;50.852;4.314;2022-10-23T12:41:26;21.00;69.40
14415;DHT22;7307;50.852;4.314;2022-10-23T12:44:03;21.00;69.40
14415;DHT22;7307;50.852;4.314;2022-10-23T12:48:58;21.00;69.40
14415;DHT22;7307;50.852;4.314;2022-10-23T12:51:32;21.00;69.40
14415;DHT22;7307;50.852;4.314;2022-10-23T12:53:58;21.00;69.40
14415;DHT22;7307;50.852;4.314;2022-10-23T12:56:25;21.00;69.40
14415;DHT22;7307;50.852;4.314;2022-10-23T12:58:55;21.00;69.40
14415;DHT22;7307;50.852;4.314;2022-10-23T13:01:30;21.00;69.50
14415;DHT22;7307;50.852;4.314;2022-10-23T13:06:40;21.00;69.60
14415;DHT22;7307;50.852;4.314;2022-10-23T13:09:48;21.00;69.60
14415;DHT22;7307;50.852;4.314;2022-10-23T13:12:08;21.00;69.60
14415;DHT22;7307;50.852;4.314;2022-10-23T13:14:41;21.10;69.70
14415;DHT22;7307;50.852;4.314;2022-10-23T13:17:09;21.00;69.80
14415;DHT22;7307;50.852;4.314;2022-10-23T13:19:35;21.10;70.10
14415;DHT22;7307;50.852;4.314;2022-10-23T13:22:03;21.10;69.60
14415;DHT22;7307;50.852;4.314;2022-10-23T13:24:30;21.10;69.60
14415;DHT22;7307;50.852;4.314;2022-10-23T13:26:56;21.10;69.60
14415;DHT22;7307;50.852;4.314;2022-10-23T13:29:30;21.10;69.20
14415;DHT22;7307;50.852;4.314;2022-10-23T13:32:11;21.10;69.00
14415;DHT22;7307;50.852;4.314;2022-10-23T13:34:37;21.10;69.00
14415;DHT22;7307;50.852;4.314;2022-10-23T13:37:22;21.10;68.90
14415;DHT22;7307;50.852;4.314;2022-10-23T13:40:05;21.10;69.40
14415;DHT22;7307;50.852;4.314;2022-10-23T13:42:34;21.10;68.90
14415;DHT22;7307;50.852;4.314;2022-10-23T13:45:00;21.10;68.90
14415;DHT22;7307;50.852;4.314;2022-10-23T13:47:25;21.10;69.10
14415;DHT22;7307;50.852;4.314;2022-10-23T13:49:51;21.10;69.10
14415;DHT22;7307;50.852;4.314;2022-10-23T13:52:19;21.10;69.10
14415;DHT22;7307;50.852;4.314;2022-10-23T13:54:46;21.10;69.10
14415;DHT22;7307;50.852;4.314;2022-10-23T13:57:13;21.10;69.10
14415;DHT22;7307;50.852;4.314;2022-10-23T13:59:39;21.00;69.00
14415;DHT22;7307;50.852;4.314;2022-10-23T14:02:20;21.10;69.10
14415;DHT22;7307;50.852;4.314;2022-10-23T14:04:47;21.10;69.10
14415;DHT22;7307;50.852;4.314;2022-10-23T14:07:13;21.10;69.10
14415;DHT22;7307;50.852;4.314;2022-10-23T14:09:38;21.00;69.00
14415;DHT22;7307;50.852;4.314;2022-10-23T14:12:04;21.00;69.00
14415;DHT22;7307;50.852;4.314;2022-10-23T14:14:30;21.00;68.90
14415;DHT22;7307;50.852;4.314;2022-10-23T14:16:55;21.00;68.90
14415;DHT22;7307;50.852;4.314;2022-10-23T14:19:21;21.00;69.00
14415;DHT22;7307;50.852;4.314;2022-10-23T14:21:46;21.00;69.80
14415;DHT22;7307;50.852;4.314;2022-10-23T14:24:12;21.00;69.00
14415;DHT22;7307;50.852;4.314;2022-10-23T14:26:39;21.00;69.00
14415;DHT22;7307;50.852;4.314;2022-10-23T14:29:05;21.00;69.00
14415;DHT22;7307;50.852;4.314;2022-10-23T14:31:30;21.00;69.10
14415;DHT22;7307;50.852;4.314;2022-10-23T14:33:57;21.00;69.00
14415;DHT22;7307;50.852;4.314;2022-10-23T14:36:25;21.00;69.20
14415;DHT22;7307;50.852;4.314;2022-10-23T14:38:56;21.00;69.10
14415;DHT22;7307;50.852;4.314;2022-10-23T14:41:22;21.00;69.00
14415;DHT22;7307;50.852;4.314;2022-10-23T14:43:47;21.00;69.20
14415;DHT22;7307;50.852;4.314;2022-10-23T14:46:18;21.00;69.00
14415;DHT22;7307;50.852;4.314;2022-10-23T14:48:44;21.00;69.00
14415;DHT22;7307;50.852;4.314;2022-10-23T14:51:21;21.00;68.90
14415;DHT22;7307;50.852;4.314;2022-10-23T14:53:52;21.00;68.90
14415;DHT22;7307;50.852;4.314;2022-10-23T14:56:18;21.00;68.90
14415;DHT22;7307;50.852;4.314;2022-10-23T14:58:44;21.00;69.00
14415;DHT22;7307;50.852;4.314;2022-10-23T15:01:09;21.00;69.00
14415;DHT22;7307;50.852;4.314;2022-10-23T15:03:35;21.00;68.90
14415;DHT22;7307;50.852;4.314;2022-10-23T15:06:01;21.00;69.00
14415;DHT22;7307;50.852;4.314;2022-10-23T15:08:26;21.00;69.00
14415;DHT22;7307;50.852;4.314;2022-10-23T15:10:52;21.00;69.10
14415;DHT22;7307;50.852;4.314;2022-10-23T15:13:17;21.00;69.00
14415;DHT22;7307;50.852;4.314;2022-10-23T15:15:43;21.00;69.00
14415;DHT22;7307;50.852;4.314;2022-10-23T15:18:09;21.00;69.10
14415;DHT22;7307;50.852;4.314;2022-10-23T15:20:35;21.00;69.10
14415;DHT22;7307;50.852;4.314;2022-10-23T15:23:00;21.00;68.90
14415;DHT22;7307;50.852;4.314;2022-10-23T15:25:27;21.00;68.90
14415;DHT22;7307;50.852;4.314;2022-10-23T15:27:53;21.00;68.90
14415;DHT22;7307;50.852;4.314;2022-10-23T15:30:18;21.00;68.90
14415;DHT22;7307;50.852;4.314;2022-10-23T15:32:44;21.10;68.90
14415;DHT22;7307;50.852;4.314;2022-10-23T15:35:10;21.00;68.90
14415;DHT22;7307;50.852;4.314;2022-10-23T15:37:35;21.00;68.90
14415;DHT22;7307;50.852;4.314;2022-10-23T15:40:01;21.00;68.90
14415;DHT22;7307;50.852;4.314;2022-10-23T15:42:27;21.00;68.90
14415;DHT22;7307;50.852;4.314;2022-10-23T15:44:52;21.00;68.90
14415;DHT22;7307;50.852;4.314;2022-10-23T15:47:18;21.00;68.90
14415;DHT22;7307;50.852;4.314;2022-10-23T15:49:43;21.00;68.90
14415;DHT22;7307;50.852;4.314;2022-10-23T15:52:09;21.00;68.90
14415;DHT22;7307;50.852;4.314;2022-10-23T15:54:35;21.00;68.90
14415;DHT22;7307;50.852;4.314;2022-10-23T15:57:01;21.00;68.90
14415;DHT22;7307;50.852;4.314;2022-10-23T15:59:28;21.00;68.90
14415;DHT22;7307;50.852;4.314;2022-10-23T16:01:54;21.00;68.90
14415;DHT22;7307;50.852;4.314;2022-10-23T16:04:20;21.00;68.90
14415;DHT22;7307;50.852;4.314;2022-10-23T16:06:46;21.00;68.90
14415;DHT22;7307;50.852;4.314;2022-10-23T16:09:12;21.00;68.90
14415;DHT22;7307;50.852;4.314;2022-10-23T16:11:40;21.00;68.90
14415;DHT22;7307;50.852;4.314;2022-10-23T16:14:06;21.00;68.90
14415;DHT22;7307;50.852;4.314;2022-10-23T16:16:33;21.00;68.90
14415;DHT22;7307;50.852;4.314;2022-10-23T16:18:59;21.00;68.90
14415;DHT22;7307;50.852;4.314;2022-10-23T16:21:27;21.00;68.90
14415;DHT22;7307;50.852;4.314;2022-10-23T16:23:56;21.00;68.90
14415;DHT22;7307;50.852;4.314;2022-10-23T16:26:23;21.00;68.90
14415;DHT22;7307;50.852;4.314;2022-10-23T16:28:56;21.00;68.90
14415;DHT22;7307;50.852;4.314;2022-10-23T16:31:23;21.00;68.90
14415;DHT22;7307;50.852;4.314;2022-10-23T16:33:49;21.00;68.90
14415;DHT22;7307;50.852;4.314;2022-10-23T16:36:16;21.00;68.90
14415;DHT22;7307;50.852;4.314;2022-10-23T16:38:42;21.00;68.90
14415;DHT22;7307;50.852;4.314;2022-10-23T16:41:07;21.00;68.90
14415;DHT22;7307;50.852;4.314;2022-10-23T16:43:33;21.00;69.10
14415;DHT22;7307;50.852;4.314;2022-10-23T16:46:11;21.00;68.90
14415;DHT22;7307;50.852;4.314;2022-10-23T16:48:38;21.00;68.90
14415;DHT22;7307;50.852;4.314;2022-10-23T16:51:08;21.00;68.90
14415;DHT22;7307;50.852;4.314;2022-10-23T16:53:34;21.00;68.90
14415;DHT22;7307;50.852;4.314;2022-10-23T16:55:59;21.00;69.10
14415;DHT22;7307;50.852;4.314;2022-10-23T16:58:27;21.00;69.20
14415;DHT22;7307;50.852;4.314;2022-10-23T17:01:08;21.00;69.20
14415;DHT22;7307;50.852;4.314;2022-10-23T17:03:40;21.00;69.20
14415;DHT22;7307;50.852;4.314;2022-10-23T17:06:07;21.00;69.10
14415;DHT22;7307;50.852;4.314;2022-10-23T17:08:33;21.00;69.10
14415;DHT22;7307;50.852;4.314;2022-10-23T17:11:28;21.00;69.10
14415;DHT22;7307;50.852;4.314;2022-10-23T17:14:32;21.00;69.00
14415;DHT22;7307;50.852;4.314;2022-10-23T17:17:01;21.00;69.10
14415;DHT22;7307;50.852;4.314;2022-10-23T17:19:28;21.00;69.00
14415;DHT22;7307;50.852;4.314;2022-10-23T17:21:56;21.00;69.00
14415;DHT22;7307;50.852;4.314;2022-10-23T17:24:22;21.00;69.00
14415;DHT22;7307;50.852;4.314;2022-10-23T17:26:47;21.00;69.10
14415;DHT22;7307;50.852;4.314;2022-10-23T17:29:13;21.00;69.00
14415;DHT22;7307;50.852;4.314;2022-10-23T17:31:42;21.00;68.90
14415;DHT22;7307;50.852;4.314;2022-10-23T17:34:11;21.00;68.90
14415;DHT22;7307;50.852;4.314;2022-10-23T17:36:42;21.00;68.90
14415;DHT22;7307;50.852;4.314;2022-10-23T17:39:10;21.00;68.90
14415;DHT22;7307;50.852;4.314;2022-10-23T17:41:36;21.00;68.90
14415;DHT22;7307;50.852;4.314;2022-10-23T17:44:02;21.00;68.90
14415;DHT22;7307;50.852;4.314;2022-10-23T17:46:28;21.00;68.90
14415;DHT22;7307;50.852;4.314;2022-10-23T17:48:59;21.00;68.90
14415;DHT22;7307;50.852;4.314;2022-10-23T17:51:26;21.00;68.90
14415;DHT22;7307;50.852;4.314;2022-10-23T17:53:54;21.00;68.80
14415;DHT22;7307;50.852;4.314;2022-10-23T17:56:22;21.00;68.80
14415;DHT22;7307;50.852;4.314;2022-10-23T17:58:49;21.00;69.60
14415;DHT22;7307;50.852;4.314;2022-10-23T18:01:18;21.00;68.80
14415;DHT22;7307;50.852;4.314;2022-10-23T18:03:45;21.00;68.80
14415;DHT22;7307;50.852;4.314;2022-10-23T18:06:13;21.00;68.70